Hovedside
METAR-TAF:

METAR-TAF

Lufthavner :

Honiara internasjonale lufthavn

Honiara, Guadalcanal, Salomonøyene

breddegrad: 09-25S, lengdegrad: 160-03E, høyde over havet: 8 m

Gjeldene værobservasjon

Denne rapporten ble laget for 47 minutter siden, klokken 01:00 UTC
Vind 8 kt fra Nord-nordøst
Temperatur 32°C
Luftfuktighet 71%
Trykk 1007 hPa
Sikt 10 km eller mer
Spredte skyer i en høyde av 2100 ft

METAR: AGGH 290100Z 02008KT 9999 SCT021 32/26 Q1007

Tid: 12:47 (01:47 UTC)

Varsel

Denne rapporten ble laget for 2 timer og 37 minutter siden, klokken 23:10 UTC
Varsel gyldig fra 29. klokken 00 UTC til 29. klokken 24 UTC
Vind 10 kt fra Nord-nordøst
Sikt: 1007 m
Spredte skyer i en høyde av 2000 ft

TAF: AGGH 282310Z 2900/2924 02010KT 9999 SCT020 T 31 32 32 28 Q 1008 1006 1005 1007

Værobservasjoner og værvarsel for over 4000 flyplasser (METAR- og TAF-rapporter).

Tilgjengelige stasjoner er representert av de røde og gule prikkene på kartet.

Hold musepekeren over prikken for å se navnet på stasjonen.

Klikk så for å se værobservasjoner og -varsler.

For å forandre kartet kan du klikke på den grønne knappen med svart kryss for å zoome inn, på den grønne knappen med strek for å zoome ut, eller på de grønne pilene for å se tilstøtende kart.


METAR-TAF: